Aviation Digital Data Service (ADDS)

Output produced by METARs form (1057 UTC 01 March 2015)
found at http://aviationweather.gov/adds/metars/
 
KDCA 010902Z 0109/0206 VRB03KT P6SM OVC080 
     FM011300 VRB03KT 3SM -SN BR SCT030 OVC070 
     FM011500 18005KT 2SM -FZRASNPL BR BKN015 OVC030 
     FM011800 17006KT 5SM -FZRA BR BKN009 OVC020 
     FM020000 18007KT 3SM BR SCT009 BKN015 OVC035